createdAt,value
2018-05-24T00:05:13.866Z,4.92
2018-05-24T00:11:08.921Z,5.23
2018-05-24T00:17:03.882Z,5.05
2018-05-24T00:22:58.859Z,5.5
2018-05-24T00:28:53.867Z,5.47
2018-05-24T00:34:48.934Z,5.61
2018-05-24T00:40:43.879Z,4.98
2018-05-24T00:46:38.886Z,4.66
2018-05-24T00:52:33.935Z,5.17
2018-05-24T00:58:28.918Z,4.94
2018-05-24T01:04:23.988Z,5.18
2018-05-24T01:10:18.889Z,5.5
2018-05-24T01:16:13.892Z,4.63
2018-05-24T01:22:08.919Z,5.09
2018-05-24T01:28:03.952Z,6.38
2018-05-24T01:33:58.927Z,5.48
2018-05-24T01:39:53.926Z,5.69
2018-05-24T01:45:48.947Z,6.19
2018-05-24T01:51:43.939Z,6.68
2018-05-24T01:57:38.932Z,7.29
2018-05-24T02:03:33.931Z,7.73
2018-05-24T02:09:28.926Z,7.04
2018-05-24T02:15:23.983Z,6.81
2018-05-24T02:21:18.970Z,8.28
2018-05-24T02:27:14.601Z,7.95
2018-05-24T02:33:08.973Z,7.43
2018-05-24T02:39:04.005Z,6.35
2018-05-24T02:44:58.969Z,6.23
2018-05-24T02:50:53.946Z,6.04
2018-05-24T02:56:48.999Z,6.27
2018-05-24T03:02:44.032Z,5.78
2018-05-24T03:08:38.997Z,6.37
2018-05-24T03:14:34.001Z,5.56
2018-05-24T03:20:29.029Z,6.08
2018-05-24T03:26:24.004Z,6.52
2018-05-24T03:32:19.029Z,6.07
2018-05-24T03:38:14.000Z,6.07
2018-05-24T03:44:09.005Z,6.35
2018-05-24T03:50:04.072Z,6.23
2018-05-24T03:55:58.990Z,5.97
2018-05-24T04:01:54.031Z,5.77
2018-05-24T04:07:49.003Z,6.48
2018-05-24T04:13:43.997Z,7.5
2018-05-24T04:19:39.025Z,6.46
2018-05-24T04:25:34.024Z,6.69
2018-05-24T04:31:29.067Z,6.17
2018-05-24T04:37:24.018Z,6.44
2018-05-24T04:43:19.119Z,6.59
2018-05-24T04:49:14.022Z,6.49
2018-05-24T04:55:09.081Z,6.55
2018-05-24T05:01:04.122Z,7.22
2018-05-24T05:06:59.414Z,7.14
2018-05-24T05:12:54.306Z,6.46
2018-05-24T05:18:49.054Z,6.55
2018-05-24T05:24:44.046Z,6.68
2018-05-24T05:30:39.148Z,6.92
2018-05-24T05:36:34.073Z,5.8
2018-05-24T05:42:29.075Z,6.33
2018-05-24T05:48:24.089Z,6.67
2018-05-24T05:54:19.120Z,6.97
2018-05-24T06:00:14.106Z,6.29
2018-05-24T06:06:09.114Z,6.72
2018-05-24T06:12:04.195Z,7.15
2018-05-24T06:17:59.093Z,7.13
2018-05-24T06:23:54.098Z,8
2018-05-24T06:29:49.114Z,7.01
2018-05-24T06:35:44.097Z,6.36
2018-05-24T06:41:39.129Z,7.44
2018-05-24T06:47:34.140Z,7.72
2018-05-24T06:53:29.112Z,7.28
2018-05-24T06:59:24.178Z,7.31
2018-05-24T07:05:19.125Z,8.14
2018-05-24T07:11:14.130Z,8.9
2018-05-24T07:17:09.195Z,8.53
2018-05-24T07:23:04.123Z,8.45
2018-05-24T07:28:59.123Z,8.23
2018-05-24T07:34:54.155Z,9.1
2018-05-24T07:40:49.159Z,8.17
2018-05-24T07:46:44.150Z,9.16
2018-05-24T07:52:39.152Z,8.64
2018-05-24T07:58:34.177Z,8.54
2018-05-24T08:04:29.170Z,8.39
2018-05-24T08:10:24.242Z,9.19
2018-05-24T08:16:19.188Z,8.32
2018-05-24T08:22:14.170Z,8
2018-05-24T08:28:09.191Z,8.26
2018-05-24T08:34:04.220Z,8.74
2018-05-24T08:39:59.267Z,8.36
2018-05-24T08:45:54.222Z,7.47
2018-05-24T08:51:49.208Z,6.82
2018-05-24T08:57:44.200Z,7.82
2018-05-24T09:03:39.201Z,7.43
2018-05-24T09:09:34.212Z,7.39
2018-05-24T09:15:29.234Z,8.13
2018-05-24T09:21:24.246Z,9.15
2018-05-24T09:27:19.271Z,8.7
2018-05-24T09:33:14.265Z,8.84
2018-05-24T09:39:09.289Z,8.52
2018-05-24T09:45:04.296Z,8.67
2018-05-24T09:50:59.258Z,7.49
2018-05-24T09:56:54.233Z,7.09
2018-05-24T10:02:49.267Z,8.32
2018-05-24T10:08:44.255Z,7.67
2018-05-24T10:14:39.263Z,8.81
2018-05-24T10:20:34.299Z,8.98
2018-05-24T10:26:29.290Z,8.21
2018-05-24T10:32:24.269Z,7.89
2018-05-24T10:38:19.285Z,7.85
2018-05-24T10:44:14.357Z,7.35
2018-05-24T10:50:09.289Z,7.82
2018-05-24T10:56:04.352Z,9
2018-05-24T11:01:59.310Z,8.13
2018-05-24T11:07:54.309Z,8.33
2018-05-24T11:13:49.334Z,8.44
2018-05-24T11:19:44.323Z,9.39
2018-05-24T11:25:39.363Z,9.13
2018-05-24T11:31:34.360Z,8.66
2018-05-24T11:37:29.379Z,8.8
2018-05-24T11:43:24.474Z,8.24
2018-05-24T11:49:19.349Z,7.54
2018-05-24T11:55:14.354Z,7.72
2018-05-24T12:01:09.342Z,7.57
2018-05-24T12:07:04.356Z,7.2
2018-05-24T12:12:59.354Z,7.04
2018-05-24T12:18:54.397Z,8.56
2018-05-24T12:24:49.378Z,8.86
2018-05-24T12:30:44.405Z,7.86
2018-05-24T12:36:39.373Z,8.15
2018-05-24T12:42:34.475Z,8.06
2018-05-24T12:48:29.415Z,7.73
2018-05-24T12:54:24.388Z,7.25
2018-05-24T13:00:19.452Z,7.4
2018-05-24T13:06:14.412Z,7.63
2018-05-24T13:12:09.470Z,7.1
2018-05-24T13:18:04.417Z,7.24
2018-05-24T13:23:59.437Z,7.33
2018-05-24T13:29:54.401Z,7.38
2018-05-24T13:35:49.414Z,8.05
2018-05-24T13:41:44.433Z,7.87
2018-05-24T13:47:39.482Z,7.83
2018-05-24T13:53:34.456Z,7.76
2018-05-24T13:59:29.489Z,8.04
2018-05-24T14:05:24.485Z,7.53
2018-05-24T14:11:19.516Z,7.21
2018-05-24T14:17:14.466Z,7.65
2018-05-24T14:23:09.635Z,7.52
2018-05-24T14:29:04.537Z,6.63
2018-05-24T14:34:59.512Z,6.87
2018-05-24T14:40:54.467Z,7.2
2018-05-24T14:46:49.481Z,7.8
2018-05-24T14:52:44.534Z,6.78
2018-05-24T14:58:39.505Z,6.69
2018-05-24T15:04:34.479Z,7.05
2018-05-24T15:10:29.563Z,6.7
2018-05-24T15:16:24.526Z,5.99
2018-05-24T15:22:19.511Z,7.15
2018-05-24T15:28:14.504Z,7.03
2018-05-24T15:34:09.500Z,7.73
2018-05-24T15:40:04.699Z,7.86
2018-05-24T15:45:59.501Z,7.17
2018-05-24T15:51:54.511Z,7.53
2018-05-24T15:57:49.549Z,7.87
2018-05-24T16:03:44.539Z,8.13
2018-05-24T16:09:39.521Z,7.55
2018-05-24T16:15:34.613Z,8.15
2018-05-24T16:21:29.594Z,7.74
2018-05-24T16:27:24.534Z,6.74
2018-05-24T16:33:19.588Z,7.12
2018-05-24T16:39:14.583Z,6.81
2018-05-24T16:45:09.796Z,7.04
2018-05-24T16:51:04.593Z,6.79
2018-05-24T16:56:59.592Z,7.12
2018-05-24T17:02:54.595Z,7.6
2018-05-24T17:08:49.574Z,7.73
2018-05-24T17:14:44.588Z,7.63
2018-05-24T17:20:39.592Z,7.28
2018-05-24T17:26:34.637Z,9
2018-05-24T17:32:29.601Z,11.3
2018-05-24T17:38:24.623Z,9.27
2018-05-24T17:44:19.589Z,7.5
2018-05-24T17:50:14.607Z,8.2
2018-05-24T17:56:09.642Z,7.99
2018-05-24T18:02:04.667Z,7.69
2018-05-24T18:07:59.640Z,8.3
2018-05-24T18:13:54.614Z,8.67
2018-05-24T18:19:49.654Z,9.51
2018-05-24T18:25:44.657Z,9.26
2018-05-24T18:31:39.679Z,10.92
2018-05-24T18:37:34.722Z,10.56
2018-05-24T18:43:29.668Z,9.79
2018-05-24T18:49:24.705Z,10.5
2018-05-24T18:55:19.685Z,10.69
2018-05-24T19:01:14.687Z,11.66
2018-05-24T19:07:09.771Z,10.4
2018-05-24T19:13:04.918Z,9.95
2018-05-24T19:18:59.701Z,12.6
2018-05-24T19:24:54.759Z,12.18
2018-05-24T19:30:49.699Z,11.49
2018-05-24T19:36:44.670Z,11.62
2018-05-24T19:42:39.689Z,12.58
2018-05-24T19:48:34.684Z,12.39
2018-05-24T19:54:29.714Z,13.07
2018-05-24T20:00:24.746Z,12.87
2018-05-24T20:06:19.735Z,13.13
2018-05-24T20:12:14.738Z,12.49
2018-05-24T20:18:09.776Z,12.61
2018-05-24T20:24:04.759Z,12.82
2018-05-24T20:29:59.749Z,12.45
2018-05-24T20:35:54.755Z,12.3
2018-05-24T20:41:49.735Z,13.01
2018-05-24T20:47:44.725Z,13.61
2018-05-24T20:53:39.761Z,12.89
2018-05-24T20:59:34.762Z,13.74
2018-05-24T21:05:29.749Z,13.35
2018-05-24T21:11:24.824Z,13.66
2018-05-24T21:17:19.765Z,13.67
2018-05-24T21:23:14.746Z,13.08
2018-05-24T21:29:09.755Z,13.16
2018-05-24T21:35:04.749Z,13.45
2018-05-24T21:40:59.777Z,13.04
2018-05-24T21:46:54.794Z,12.77
2018-05-24T21:52:49.761Z,12.47
2018-05-24T21:58:44.784Z,12.85
2018-05-24T22:04:39.789Z,13.24
2018-05-24T22:10:34.799Z,13.45
2018-05-24T22:16:29.758Z,13.33
2018-05-24T22:22:24.850Z,12.26
2018-05-24T22:28:19.782Z,12.94
2018-05-24T22:34:14.857Z,14.31
2018-05-24T22:40:09.903Z,13.01
2018-05-24T22:46:04.808Z,12.89
2018-05-24T22:51:59.834Z,14.19
2018-05-24T22:57:54.852Z,14.8
2018-05-24T23:03:49.801Z,14.51
2018-05-24T23:09:44.868Z,15.41
2018-05-24T23:15:39.863Z,15.95
2018-05-24T23:21:34.812Z,13.96
2018-05-24T23:27:29.811Z,15.05
2018-05-24T23:33:24.860Z,14.8
2018-05-24T23:39:19.833Z,14.31
2018-05-24T23:45:14.918Z,15.07
2018-05-24T23:51:09.837Z,15.81
2018-05-24T23:57:04.827Z,15.73
